createdAt,value
2023-03-21T00:01:45.126Z,98598.94
2023-03-21T00:04:12.006Z,98595.16
2023-03-21T00:06:38.643Z,98596.66
2023-03-21T00:09:05.233Z,98585.91
2023-03-21T00:11:31.830Z,98587.78
2023-03-21T00:14:02.343Z,98582.59
2023-03-21T00:16:33.621Z,98587.31
2023-03-21T00:19:06.827Z,98577.19
2023-03-21T00:21:59.221Z,98579.91
2023-03-21T00:24:24.767Z,98577.59
2023-03-21T00:26:51.595Z,98577.94
2023-03-21T00:29:18.175Z,98574.06
2023-03-21T00:31:44.795Z,98573.53
2023-03-21T00:36:43.269Z,98563.97
2023-03-21T00:39:09.970Z,98569.22
2023-03-21T00:41:42.865Z,98567.75
2023-03-21T00:44:13.722Z,98568.16
2023-03-21T00:46:47.308Z,98569.72
2023-03-21T00:49:20.627Z,98566.22
2023-03-21T00:51:51.103Z,98565.03
2023-03-21T00:54:18.048Z,98553.94
2023-03-21T00:56:44.609Z,98558.63
2023-03-21T00:59:11.129Z,98550.53
2023-03-21T01:01:37.683Z,98548.75
2023-03-21T01:04:05.235Z,98547.13
2023-03-21T01:06:39.368Z,98540.38
2023-03-21T01:09:08.138Z,98541.28
2023-03-21T01:11:35.374Z,98550.66
2023-03-21T01:14:18.537Z,98544.25
2023-03-21T01:16:48.574Z,98550.47
2023-03-21T01:19:50.272Z,98536.38
2023-03-21T01:22:06.369Z,98532.81
2023-03-21T01:24:35.579Z,98537.56
2023-03-21T01:27:04.234Z,98538.59
2023-03-21T01:29:30.662Z,98542.09
2023-03-21T01:31:57.121Z,98531.75
2023-03-21T01:34:23.647Z,98534.03
2023-03-21T01:36:50.139Z,98530.22
2023-03-21T01:39:16.681Z,98527.59
2023-03-21T01:41:44.718Z,98529.94
2023-03-21T01:44:19.381Z,98525.44
2023-03-21T01:47:07.312Z,98530.38
2023-03-21T01:49:45.773Z,98527.75
2023-03-21T01:52:29.864Z,98527.22
2023-03-21T01:55:04.981Z,98522.50
2023-03-21T01:57:47.256Z,98522.03
2023-03-21T02:00:26.612Z,98518.88
2023-03-21T02:03:06.153Z,98516.78
2023-03-21T02:05:59.076Z,98511.50
2023-03-21T02:08:38.379Z,98503.44
2023-03-21T02:11:07.638Z,98513.97
2023-03-21T02:13:35.534Z,98507.03
2023-03-21T02:16:26.215Z,98499.84
2023-03-21T02:19:39.328Z,98499.44
2023-03-21T02:22:43.126Z,98500.66
2023-03-21T02:25:34.348Z,98492.13
2023-03-21T02:28:21.043Z,98489.81
2023-03-21T02:31:41.966Z,98485.06
2023-03-21T02:34:50.351Z,98478.28
2023-03-21T02:37:38.299Z,98473.56
2023-03-21T02:40:36.791Z,98478.78
2023-03-21T02:43:41.483Z,98482.13
2023-03-21T02:46:43.897Z,98479.47
2023-03-21T02:49:34.507Z,98470.34
2023-03-21T02:52:15.498Z,98470.78
2023-03-21T02:54:49.567Z,98465.09
2023-03-21T02:57:22.016Z,98464.34
2023-03-21T02:59:56.839Z,98463.31
2023-03-21T03:02:30.794Z,98457.66
2023-03-21T03:04:58.793Z,98456.19
2023-03-21T03:08:08.792Z,98458.91
2023-03-21T03:11:18.061Z,98454.94
2023-03-21T03:14:38.516Z,98452.50
2023-03-21T03:17:19.625Z,98445.91
2023-03-21T03:20:47.062Z,98450.16
2023-03-21T03:23:28.010Z,98452.28
2023-03-21T03:26:28.130Z,98451.38
2023-03-21T03:29:02.431Z,98452.34
2023-03-21T03:31:39.570Z,98438.34
2023-03-21T03:34:11.986Z,98438.19
2023-03-21T03:36:47.496Z,98436.19
2023-03-21T03:39:16.348Z,98439.91
2023-03-21T03:42:12.182Z,98445.03
2023-03-21T03:44:41.920Z,98436.38
2023-03-21T03:47:31.946Z,98435.00
2023-03-21T03:50:24.463Z,98435.66
2023-03-21T03:53:01.238Z,98432.69
2023-03-21T03:55:34.410Z,98437.00
2023-03-21T03:58:03.269Z,98428.34
2023-03-21T04:00:34.902Z,98433.28
2023-03-21T04:03:01.575Z,98429.94
2023-03-21T04:05:28.148Z,98434.78
2023-03-21T04:07:54.657Z,98435.94
2023-03-21T04:10:22.590Z,98428.41
2023-03-21T04:12:49.721Z,98433.44
2023-03-21T04:15:17.114Z,98429.31
2023-03-21T04:17:45.358Z,98420.47
2023-03-21T04:20:18.703Z,98424.59
2023-03-21T04:22:51.141Z,98426.16
2023-03-21T04:25:30.799Z,98419.28
2023-03-21T04:27:59.165Z,98416.03
2023-03-21T04:30:25.816Z,98415.72
2023-03-21T04:32:56.937Z,98415.28
2023-03-21T04:35:24.799Z,98407.56
2023-03-21T04:37:51.463Z,98410.28
2023-03-21T04:40:18.728Z,98406.47
2023-03-21T04:42:47.506Z,98411.44
2023-03-21T04:45:16.220Z,98409.03
2023-03-21T04:47:43.279Z,98416.81
2023-03-21T04:50:11.531Z,98419.44
2023-03-21T04:52:38.427Z,98411.78
2023-03-21T04:55:05.729Z,98413.47
2023-03-21T04:57:32.183Z,98412.63
2023-03-21T04:59:58.650Z,98408.97
2023-03-21T05:02:25.612Z,98403.63
2023-03-21T05:04:52.331Z,98410.59
2023-03-21T05:07:18.826Z,98422.00
2023-03-21T05:09:45.564Z,98427.47
2023-03-21T05:12:12.111Z,98419.41
2023-03-21T05:14:38.576Z,98411.63
2023-03-21T05:17:05.351Z,98424.47
2023-03-21T05:19:35.694Z,98416.22
2023-03-21T05:22:06.149Z,98417.25
2023-03-21T05:24:33.084Z,98419.34
2023-03-21T05:27:04.039Z,98422.75
2023-03-21T05:29:32.686Z,98420.91
2023-03-21T05:32:01.022Z,98412.41
2023-03-21T05:34:28.814Z,98414.63
2023-03-21T05:36:55.559Z,98408.75
2023-03-21T05:39:22.528Z,98417.63
2023-03-21T05:41:49.311Z,98416.16
2023-03-21T05:44:16.052Z,98418.28
2023-03-21T05:46:43.281Z,98409.03
2023-03-21T05:49:11.864Z,98410.16
2023-03-21T05:51:38.470Z,98409.97
2023-03-21T05:54:06.269Z,98411.13
2023-03-21T05:56:32.935Z,98413.91
2023-03-21T05:58:59.399Z,98420.28
2023-03-21T06:01:25.924Z,98418.41
2023-03-21T06:03:52.425Z,98418.22
2023-03-21T06:06:18.914Z,98409.50
2023-03-21T06:08:45.525Z,98415.84
2023-03-21T06:11:36.290Z,98409.56
2023-03-21T06:14:02.949Z,98408.03
2023-03-21T06:16:29.836Z,98413.41
2023-03-21T06:18:56.592Z,98409.16
2023-03-21T06:21:24.200Z,98412.03
2023-03-21T06:23:52.420Z,98413.47
2023-03-21T06:26:23.159Z,98413.19
2023-03-21T06:28:50.752Z,98419.56
2023-03-21T06:31:17.536Z,98412.03
2023-03-21T06:33:44.167Z,98420.84
2023-03-21T06:36:11.263Z,98415.94
2023-03-21T06:38:38.129Z,98422.69
2023-03-21T06:41:07.476Z,98414.72
2023-03-21T06:43:34.799Z,98418.91
2023-03-21T06:46:01.675Z,98416.31
2023-03-21T06:48:28.659Z,98416.88
2023-03-21T06:50:56.272Z,98414.03
2023-03-21T06:53:27.282Z,98425.19
2023-03-21T06:55:54.604Z,98412.69
2023-03-21T06:58:22.806Z,98412.16
2023-03-21T07:00:49.699Z,98411.22
2023-03-21T07:03:16.877Z,98411.13
2023-03-21T07:05:43.470Z,98417.66
2023-03-21T07:08:12.178Z,98414.50
2023-03-21T07:10:40.836Z,98411.16
2023-03-21T07:13:07.719Z,98415.78
2023-03-21T07:15:38.052Z,98408.19
2023-03-21T07:18:05.823Z,98411.16
2023-03-21T07:20:32.764Z,98408.63
2023-03-21T07:22:59.600Z,98410.31
2023-03-21T07:25:27.011Z,98410.94
2023-03-21T07:27:53.769Z,98406.72
2023-03-21T07:30:20.469Z,98413.56
2023-03-21T07:32:47.590Z,98411.09
2023-03-21T07:35:16.926Z,98416.16
2023-03-21T07:37:44.225Z,98412.25
2023-03-21T07:40:13.291Z,98419.00
2023-03-21T07:42:41.493Z,98421.16
2023-03-21T07:45:10.374Z,98421.91
2023-03-21T07:47:36.834Z,98426.72
2023-03-21T07:50:04.578Z,98420.84
2023-03-21T07:52:33.211Z,98426.63
2023-03-21T07:54:59.752Z,98416.34
2023-03-21T07:57:26.415Z,98419.69
2023-03-21T07:59:53.050Z,98421.84
2023-03-21T08:02:19.606Z,98415.81
2023-03-21T08:04:46.658Z,98414.63
2023-03-21T08:07:13.497Z,98421.00
2023-03-21T08:09:40.398Z,98423.00
2023-03-21T08:12:08.554Z,98428.00
2023-03-21T08:14:36.831Z,98430.22
2023-03-21T08:17:05.178Z,98435.03
2023-03-21T08:19:32.270Z,98430.25
2023-03-21T08:22:02.276Z,98434.84
2023-03-21T08:24:29.996Z,98431.00
2023-03-21T08:26:57.156Z,98437.75
2023-03-21T08:29:25.000Z,98445.44
2023-03-21T08:31:51.617Z,98442.91
2023-03-21T08:34:19.402Z,98432.38
2023-03-21T08:36:47.028Z,98435.84
2023-03-21T08:39:13.648Z,98438.88
2023-03-21T08:41:40.272Z,98446.53
2023-03-21T08:44:06.961Z,98447.50
2023-03-21T08:46:33.907Z,98447.97
2023-03-21T08:49:00.538Z,98441.03
2023-03-21T08:51:27.180Z,98446.56
2023-03-21T08:53:53.710Z,98443.34
2023-03-21T08:56:20.236Z,98444.59
2023-03-21T08:58:47.285Z,98442.88
2023-03-21T09:01:15.753Z,98445.72
2023-03-21T09:03:43.219Z,98446.72
2023-03-21T09:06:14.106Z,98442.44
2023-03-21T09:08:41.923Z,98439.91
2023-03-21T09:11:10.404Z,98446.78
2023-03-21T09:13:37.022Z,98441.97
2023-03-21T09:16:05.135Z,98442.34
2023-03-21T09:18:57.949Z,98443.09
2023-03-21T09:21:27.331Z,98442.81
2023-03-21T09:23:56.446Z,98449.06
2023-03-21T09:26:24.973Z,98448.13
2023-03-21T09:28:53.010Z,98441.06
2023-03-21T09:31:23.304Z,98447.31
2023-03-21T09:33:51.522Z,98442.44
2023-03-21T09:36:20.835Z,98444.59
2023-03-21T09:38:49.252Z,98445.59
2023-03-21T09:41:45.705Z,98448.16
2023-03-21T09:44:32.097Z,98455.16
2023-03-21T09:47:29.391Z,98444.00
2023-03-21T09:50:13.584Z,98452.31
2023-03-21T09:52:58.335Z,98445.38
2023-03-21T09:55:34.672Z,98451.53
2023-03-21T09:58:21.080Z,98448.16
2023-03-21T10:00:56.487Z,98452.28
2023-03-21T10:03:35.034Z,98449.16
2023-03-21T10:06:11.680Z,98449.53
2023-03-21T10:08:41.862Z,98449.78
2023-03-21T10:11:27.884Z,98443.09
2023-03-21T10:14:03.280Z,98441.34
2023-03-21T10:16:41.423Z,98438.00
2023-03-21T10:19:14.868Z,98439.94
2023-03-21T10:22:04.389Z,98437.53
2023-03-21T10:24:34.538Z,98435.72
2023-03-21T10:27:04.231Z,98439.09
2023-03-21T10:29:43.505Z,98427.69
2023-03-21T10:32:15.230Z,98436.69
2023-03-21T10:34:50.579Z,98432.81
2023-03-21T10:37:17.577Z,98429.22
2023-03-21T10:39:51.475Z,98422.97
2023-03-21T10:42:26.854Z,98421.53
2023-03-21T10:44:57.471Z,98413.25
2023-03-21T10:47:34.652Z,98416.41
2023-03-21T10:50:08.895Z,98412.66
2023-03-21T10:52:47.475Z,98418.19
2023-03-21T10:55:31.995Z,98414.47
2023-03-21T10:58:18.784Z,98416.03
2023-03-21T11:00:48.043Z,98412.19
2023-03-21T11:03:31.149Z,98405.22
2023-03-21T11:06:14.069Z,98411.47
2023-03-21T11:08:56.268Z,98407.88
2023-03-21T11:11:40.431Z,98405.72
2023-03-21T11:14:32.864Z,98403.91
2023-03-21T11:16:59.588Z,98403.53
2023-03-21T11:19:32.301Z,98397.31
2023-03-21T11:22:06.688Z,98394.66
2023-03-21T11:24:35.915Z,98396.31
2023-03-21T11:27:08.099Z,98395.34
2023-03-21T11:29:40.417Z,98397.75
2023-03-21T11:32:37.961Z,98393.19
2023-03-21T11:35:28.028Z,98389.16
2023-03-21T11:37:56.726Z,98392.47
2023-03-21T11:40:29.250Z,98383.34
2023-03-21T11:43:31.882Z,98383.13
2023-03-21T11:46:09.346Z,98382.38
2023-03-21T11:48:42.549Z,98380.47
2023-03-21T11:51:46.534Z,98383.81
2023-03-21T11:54:25.894Z,98375.19
2023-03-21T11:57:04.332Z,98377.84
2023-03-21T12:00:03.109Z,98371.59
2023-03-21T12:02:55.650Z,98362.69
2023-03-21T12:05:31.741Z,98361.50
2023-03-21T12:08:20.578Z,98359.34
2023-03-21T12:10:57.488Z,98351.63
2023-03-21T12:14:04.476Z,98355.72
2023-03-21T12:17:01.315Z,98344.91
2023-03-21T12:19:46.509Z,98340.72
2023-03-21T12:22:27.780Z,98335.81
2023-03-21T12:24:57.060Z,98335.09
2023-03-21T12:28:15.295Z,98320.44
2023-03-21T12:31:10.858Z,98322.34
2023-03-21T12:33:52.722Z,98311.84
2023-03-21T12:36:59.489Z,98306.47
2023-03-21T12:39:36.401Z,98303.69
2023-03-21T12:42:43.502Z,98303.13
2023-03-21T12:45:19.560Z,98297.59
2023-03-21T12:47:56.066Z,98292.53
2023-03-21T12:50:32.705Z,98298.78
2023-03-21T12:53:09.539Z,98299.06
2023-03-21T12:55:36.595Z,98293.25
2023-03-21T12:58:11.672Z,98304.22
2023-03-21T13:00:45.547Z,98295.47
2023-03-21T13:03:30.558Z,98295.91
2023-03-21T13:06:09.579Z,98291.81
2023-03-21T13:08:44.267Z,98289.53
2023-03-21T13:11:19.455Z,98292.63
2023-03-21T13:13:53.646Z,98279.84
2023-03-21T13:16:27.600Z,98287.69
2023-03-21T13:19:22.688Z,98280.19
2023-03-21T13:22:05.621Z,98278.63
2023-03-21T13:24:31.977Z,98269.03
2023-03-21T13:27:24.556Z,98270.25
2023-03-21T13:29:58.684Z,98273.16
2023-03-21T13:32:43.989Z,98272.41
2023-03-21T13:35:27.633Z,98279.97
2023-03-21T13:38:03.632Z,98280.97
2023-03-21T13:40:51.744Z,98276.69
2023-03-21T13:44:08.066Z,98276.69
2023-03-21T13:46:54.850Z,98266.72
2023-03-21T13:49:34.631Z,98268.66
2023-03-21T13:52:26.085Z,98268.72
2023-03-21T13:54:56.667Z,98260.78
2023-03-21T13:57:31.967Z,98264.28
2023-03-21T14:00:18.849Z,98265.88
2023-03-21T14:03:14.065Z,98268.78
2023-03-21T14:05:41.723Z,98251.97
2023-03-21T14:08:27.890Z,98230.06
2023-03-21T14:11:09.857Z,98212.81
2023-03-21T14:13:48.429Z,98224.75
2023-03-21T14:16:20.388Z,98241.00
2023-03-21T14:19:02.139Z,98242.25
2023-03-21T14:21:33.981Z,98234.09
2023-03-21T14:24:07.965Z,98240.91
2023-03-21T14:26:43.734Z,98239.25
2023-03-21T14:29:26.122Z,98221.56
2023-03-21T14:31:56.313Z,98215.22
2023-03-21T14:34:27.112Z,98210.91
2023-03-21T14:37:00.946Z,98207.88
2023-03-21T14:39:32.306Z,98214.09
2023-03-21T14:42:08.280Z,98217.13
2023-03-21T14:44:54.995Z,98202.25
2023-03-21T14:47:29.266Z,98197.16
2023-03-21T14:49:58.057Z,98193.25
2023-03-21T14:52:34.039Z,98180.53
2023-03-21T14:55:11.686Z,98176.94
2023-03-21T14:57:38.239Z,98177.81
2023-03-21T15:00:12.942Z,98172.81
2023-03-21T15:02:42.779Z,98158.63
2023-03-21T15:05:26.141Z,98163.34
2023-03-21T15:07:58.157Z,98164.25
2023-03-21T15:10:29.793Z,98155.66
2023-03-21T15:13:12.849Z,98161.50
2023-03-21T15:15:41.238Z,98141.97
2023-03-21T15:18:11.024Z,98147.97
2023-03-21T15:20:39.500Z,98155.56
2023-03-21T15:23:35.795Z,98151.31
2023-03-21T15:26:05.188Z,98151.25
2023-03-21T15:28:34.921Z,98145.47
2023-03-21T15:31:02.470Z,98153.09
2023-03-21T15:33:28.997Z,98154.91
2023-03-21T15:35:58.409Z,98148.78
2023-03-21T15:38:41.137Z,98153.09
2023-03-21T15:41:19.699Z,98158.94
2023-03-21T15:44:07.815Z,98150.56
2023-03-21T15:46:51.495Z,98149.34
2023-03-21T15:49:28.168Z,98144.34
2023-03-21T15:51:57.776Z,98138.94
2023-03-21T15:54:32.369Z,98129.50
2023-03-21T15:57:04.823Z,98137.44
2023-03-21T15:59:40.564Z,98141.03
2023-03-21T16:02:19.065Z,98139.06
2023-03-21T16:05:21.731Z,98128.63
2023-03-21T16:07:48.700Z,98114.56
2023-03-21T16:10:38.875Z,98106.44
2023-03-21T16:13:06.522Z,98107.72
2023-03-21T16:15:33.282Z,98117.31
2023-03-21T16:18:04.085Z,98113.25
2023-03-21T16:20:44.498Z,98109.50
2023-03-21T16:23:13.586Z,98111.47
2023-03-21T16:25:43.687Z,98112.81
2023-03-21T16:28:16.751Z,98106.69
2023-03-21T16:30:44.296Z,98104.19
2023-03-21T16:33:12.863Z,98108.50
2023-03-21T16:35:40.656Z,98105.16
2023-03-21T16:38:07.457Z,98117.44
2023-03-21T16:40:39.365Z,98112.00
2023-03-21T16:43:06.500Z,98118.28
2023-03-21T16:45:33.257Z,98113.16
2023-03-21T16:48:00.613Z,98122.09
2023-03-21T16:50:42.182Z,98126.22
2023-03-21T16:53:09.337Z,98129.59
2023-03-21T16:55:37.556Z,98130.81
2023-03-21T16:58:05.273Z,98134.22
2023-03-21T17:00:31.947Z,98129.88
2023-03-21T17:03:13.634Z,98125.03
2023-03-21T17:05:40.404Z,98132.13
2023-03-21T17:08:07.065Z,98135.34
2023-03-21T17:10:33.676Z,98134.66
2023-03-21T17:13:00.211Z,98130.25
2023-03-21T17:15:26.976Z,98123.16
2023-03-21T17:17:55.499Z,98120.34
2023-03-21T17:20:31.575Z,98117.75
2023-03-21T17:22:59.023Z,98125.72
2023-03-21T17:25:26.155Z,98126.50
2023-03-21T17:27:54.010Z,98133.38
2023-03-21T17:30:30.895Z,98138.50
2023-03-21T17:32:58.655Z,98141.78
2023-03-21T17:35:26.209Z,98146.72
2023-03-21T17:37:54.021Z,98155.88
2023-03-21T17:40:26.731Z,98141.34
2023-03-21T17:42:53.813Z,98154.53
2023-03-21T17:45:20.967Z,98149.63
2023-03-21T17:47:47.562Z,98147.97
2023-03-21T17:50:21.985Z,98146.41
2023-03-21T17:52:50.848Z,98149.88
2023-03-21T17:55:20.937Z,98152.19
2023-03-21T17:57:48.905Z,98145.59
2023-03-21T18:00:26.307Z,98141.41
2023-03-21T18:02:53.149Z,98156.38
2023-03-21T18:05:21.604Z,98158.03
2023-03-21T18:08:10.761Z,98163.44
2023-03-21T18:10:39.272Z,98164.00
2023-03-21T18:13:06.429Z,98169.47
2023-03-21T18:15:33.011Z,98168.00
2023-03-21T18:17:59.806Z,98176.84
2023-03-21T18:20:49.934Z,98162.44
2023-03-21T18:23:14.817Z,98157.09
2023-03-21T18:25:41.701Z,98150.22
2023-03-21T18:28:12.050Z,98149.63
2023-03-21T18:31:04.842Z,98153.06
2023-03-21T18:33:27.258Z,98159.59
2023-03-21T18:35:58.666Z,98156.06
2023-03-21T18:38:26.366Z,98157.72
2023-03-21T18:40:52.856Z,98162.84
2023-03-21T18:46:07.597Z,98167.69
2023-03-21T18:48:35.770Z,98169.69
2023-03-21T18:51:03.740Z,98174.34
2023-03-21T18:53:30.407Z,98173.31
2023-03-21T18:55:57.556Z,98170.19
2023-03-21T18:58:25.512Z,98169.50
2023-03-21T19:00:53.459Z,98166.22
2023-03-21T19:03:34.351Z,98176.00
2023-03-21T19:06:04.701Z,98168.88
2023-03-21T19:08:31.825Z,98176.00
2023-03-21T19:11:00.195Z,98167.41
2023-03-21T19:13:30.424Z,98165.22
2023-03-21T19:15:57.214Z,98176.59
2023-03-21T19:18:41.644Z,98181.75
2023-03-21T19:21:10.808Z,98165.75
2023-03-21T19:24:07.860Z,98167.63
2023-03-21T19:26:25.841Z,98163.19
2023-03-21T19:28:53.682Z,98171.03
2023-03-21T19:31:21.815Z,98162.50
2023-03-21T19:33:48.669Z,98163.94
2023-03-21T19:36:21.779Z,98165.63
2023-03-21T19:38:49.092Z,98173.53
2023-03-21T19:41:16.343Z,98167.97
2023-03-21T19:43:53.147Z,98158.72
2023-03-21T19:46:24.375Z,98157.88
2023-03-21T19:48:56.230Z,98147.34
2023-03-21T19:51:29.418Z,98156.41
2023-03-21T19:54:03.232Z,98156.13
2023-03-21T19:56:31.524Z,98155.13
2023-03-21T19:58:59.058Z,98153.22
2023-03-21T20:01:27.579Z,98156.19
2023-03-21T20:03:54.524Z,98149.69
2023-03-21T20:06:24.305Z,98148.34
2023-03-21T20:11:39.942Z,98144.97
2023-03-21T20:14:06.505Z,98146.22
2023-03-21T20:16:35.873Z,98149.97
2023-03-21T20:19:09.896Z,98149.81
2023-03-21T20:21:47.716Z,98144.75
2023-03-21T20:24:16.952Z,98140.44
2023-03-21T20:26:45.766Z,98133.81
2023-03-21T20:32:00.616Z,98142.75
2023-03-21T20:34:28.466Z,98140.84
2023-03-21T20:36:55.516Z,98142.19
2023-03-21T20:39:22.370Z,98141.13
2023-03-21T20:41:48.952Z,98144.84
2023-03-21T20:47:05.453Z,98142.63
2023-03-21T20:49:32.158Z,98132.84
2023-03-21T20:54:45.617Z,98132.34
2023-03-21T20:57:12.190Z,98136.28
2023-03-21T20:59:39.240Z,98138.91
2023-03-21T21:02:05.737Z,98135.84
2023-03-21T21:04:49.840Z,98133.22
2023-03-21T21:07:22.358Z,98128.69
2023-03-21T21:09:50.133Z,98129.66
2023-03-21T21:12:19.069Z,98134.41
2023-03-21T21:14:45.861Z,98130.72
2023-03-21T21:17:54.565Z,98125.03
2023-03-21T21:20:01.574Z,98124.31
2023-03-21T21:22:28.913Z,98116.97
2023-03-21T21:24:55.454Z,98120.00
2023-03-21T21:27:21.937Z,98119.38
2023-03-21T21:29:50.156Z,98123.38
2023-03-21T21:32:18.516Z,98114.53
2023-03-21T21:34:45.601Z,98118.13
2023-03-21T21:37:12.220Z,98109.28
2023-03-21T21:39:40.092Z,98113.91
2023-03-21T21:42:06.627Z,98114.34
2023-03-21T21:44:33.327Z,98120.09
2023-03-21T21:46:59.869Z,98112.84
2023-03-21T21:49:27.831Z,98123.03
2023-03-21T21:51:56.144Z,98116.53
2023-03-21T21:54:22.664Z,98117.50
2023-03-21T21:56:53.855Z,98115.16
2023-03-21T21:59:21.934Z,98108.97
2023-03-21T22:01:51.016Z,98111.38
2023-03-21T22:04:18.104Z,98113.47
2023-03-21T22:06:44.654Z,98113.69
2023-03-21T22:09:11.222Z,98109.91
2023-03-21T22:11:37.673Z,98113.28
2023-03-21T22:14:04.150Z,98113.38
2023-03-21T22:16:30.787Z,98108.97
2023-03-21T22:18:57.270Z,98113.59
2023-03-21T22:21:23.885Z,98108.44
2023-03-21T22:23:50.509Z,98106.88
2023-03-21T22:26:17.056Z,98110.56
2023-03-21T22:28:43.729Z,98099.53
2023-03-21T22:31:18.158Z,98100.44
2023-03-21T22:33:45.384Z,98098.34
2023-03-21T22:36:12.318Z,98099.63
2023-03-21T22:38:38.987Z,98102.56
2023-03-21T22:41:06.749Z,98097.94
2023-03-21T22:43:35.110Z,98088.94
2023-03-21T22:46:04.373Z,98084.06
2023-03-21T22:48:31.409Z,98096.03
2023-03-21T22:51:00.010Z,98104.38
2023-03-21T22:53:26.802Z,98097.94
2023-03-21T22:55:53.699Z,98100.59
2023-03-21T22:58:20.992Z,98092.06
2023-03-21T23:00:48.163Z,98094.78
2023-03-21T23:03:16.716Z,98091.44
2023-03-21T23:05:45.160Z,98085.56
2023-03-21T23:08:12.783Z,98081.56
2023-03-21T23:10:43.301Z,98085.56
2023-03-21T23:13:10.066Z,98087.00
2023-03-21T23:15:38.495Z,98085.84
2023-03-21T23:18:06.335Z,98091.41
2023-03-21T23:20:32.914Z,98089.94
2023-03-21T23:22:59.477Z,98090.25
2023-03-21T23:25:26.157Z,98088.75
2023-03-21T23:27:52.708Z,98086.97
2023-03-21T23:30:19.295Z,98091.06
2023-03-21T23:32:45.880Z,98085.06
2023-03-21T23:35:12.895Z,98076.84
2023-03-21T23:37:42.305Z,98093.44
2023-03-21T23:40:10.292Z,98086.41
2023-03-21T23:42:36.913Z,98086.19
2023-03-21T23:45:04.479Z,98076.13
2023-03-21T23:47:31.005Z,98077.16
2023-03-21T23:49:57.562Z,98083.88
2023-03-21T23:52:24.175Z,98085.75
2023-03-21T23:54:50.765Z,98077.47
2023-03-21T23:57:17.900Z,98077.53
2023-03-21T23:59:46.562Z,98070.94
